createdAt,value
2017-07-11T00:00:42.267Z,7.67
2017-07-11T00:03:10.506Z,7.67
2017-07-11T00:05:38.731Z,7.53
2017-07-11T00:08:07.395Z,10.10
2017-07-11T00:10:35.631Z,5.60
2017-07-11T00:13:03.860Z,9.90
2017-07-11T00:15:32.126Z,10.90
2017-07-11T00:18:00.381Z,8.87
2017-07-11T00:20:28.605Z,7.10
2017-07-11T00:22:56.882Z,8.13
2017-07-11T00:25:25.521Z,7.40
2017-07-11T00:27:53.744Z,10.27
2017-07-11T00:30:22.020Z,6.80
2017-07-11T00:32:50.250Z,6.50
2017-07-11T00:35:18.488Z,6.43
2017-07-11T00:37:46.759Z,5.97
2017-07-11T00:40:14.997Z,9.07
2017-07-11T00:42:43.228Z,7.30
2017-07-11T00:45:11.484Z,7.63
2017-07-11T00:47:39.717Z,7.03
2017-07-11T00:50:07.944Z,7.43
2017-07-11T00:52:36.213Z,6.40
2017-07-11T00:55:04.745Z,8.17
2017-07-11T00:57:32.971Z,9.73
2017-07-11T01:00:01.236Z,4.77
2017-07-11T01:02:29.474Z,7.73
2017-07-11T01:04:57.708Z,7.03
2017-07-11T01:07:25.997Z,5.87
2017-07-11T01:09:54.229Z,6.73
2017-07-11T01:12:22.467Z,8.90
2017-07-11T01:14:50.734Z,5.40
2017-07-11T01:17:18.982Z,8.10
2017-07-11T01:19:47.272Z,5.43
2017-07-11T01:22:15.558Z,6.47
2017-07-11T01:24:43.795Z,5.03
2017-07-11T01:27:12.020Z,7.80
2017-07-11T01:29:40.290Z,6.67
2017-07-11T01:32:08.539Z,10.90
2017-07-11T01:34:36.768Z,7.37
2017-07-11T01:37:05.422Z,6.23
2017-07-11T01:39:33.647Z,5.77
2017-07-11T01:42:01.886Z,10.53
2017-07-11T01:44:30.155Z,5.60
2017-07-11T01:46:58.378Z,10.17
2017-07-11T01:49:26.614Z,5.30
2017-07-11T01:51:54.878Z,4.23
2017-07-11T01:54:23.128Z,6.13
2017-07-11T01:56:51.353Z,4.17
2017-07-11T01:59:20.020Z,4.90
2017-07-11T02:01:48.254Z,3.60
2017-07-11T02:04:16.484Z,6.50
2017-07-11T02:06:44.748Z,3.90
2017-07-11T02:09:12.981Z,4.43
2017-07-11T02:11:41.501Z,5.47
2017-07-11T02:14:09.785Z,6.90
2017-07-11T02:16:38.016Z,6.07
2017-07-11T02:19:06.252Z,4.30
2017-07-11T02:21:34.910Z,9.67
2017-07-11T02:24:03.146Z,5.23
2017-07-11T02:26:31.460Z,5.77
2017-07-11T02:28:59.809Z,9.20
2017-07-11T02:31:28.045Z,5.77
2017-07-11T02:33:56.677Z,8.43
2017-07-11T02:36:25.286Z,5.80
2017-07-11T02:38:53.774Z,4.13
2017-07-11T02:41:22.009Z,5.40
2017-07-11T02:43:50.283Z,5.17
2017-07-11T02:46:18.564Z,5.57
2017-07-11T02:48:46.792Z,6.93
2017-07-11T02:51:15.470Z,4.67
2017-07-11T02:53:43.709Z,3.80
2017-07-11T02:56:11.933Z,5.30
2017-07-11T02:58:40.593Z,3.47
2017-07-11T03:01:08.824Z,3.40
2017-07-11T03:03:37.061Z,4.30
2017-07-11T03:06:05.709Z,3.90
2017-07-11T03:08:33.936Z,3.70
2017-07-11T03:11:02.209Z,3.43
2017-07-11T03:13:30.488Z,7.30
2017-07-11T03:15:58.718Z,4.00
2017-07-11T03:18:26.957Z,3.60
2017-07-11T03:20:55.216Z,5.83
2017-07-11T03:23:23.449Z,4.30
2017-07-11T03:25:51.679Z,6.70
2017-07-11T03:28:19.977Z,6.00
2017-07-11T03:30:48.215Z,4.10
2017-07-11T03:33:16.844Z,6.37
2017-07-11T03:35:45.113Z,5.70
2017-07-11T03:38:13.337Z,3.53
2017-07-11T03:40:41.975Z,7.57
2017-07-11T03:43:10.232Z,4.10
2017-07-11T03:45:38.459Z,4.93
2017-07-11T03:48:06.696Z,4.67
2017-07-11T03:50:34.961Z,4.63
2017-07-11T03:53:03.192Z,6.47
2017-07-11T03:55:31.821Z,4.27
2017-07-11T03:58:00.125Z,6.60
2017-07-11T04:00:28.365Z,4.80
2017-07-11T04:02:56.592Z,4.10
2017-07-11T04:05:24.853Z,4.00
2017-07-11T04:07:53.095Z,3.90
2017-07-11T04:10:21.329Z,3.40
2017-07-11T04:12:49.601Z,3.40
2017-07-11T04:15:17.828Z,3.30
2017-07-11T04:17:46.069Z,4.53
2017-07-11T04:20:14.332Z,3.60
2017-07-11T04:22:42.621Z,4.30
2017-07-11T04:25:10.825Z,3.40
2017-07-11T04:27:39.115Z,4.33
2017-07-11T04:30:07.396Z,4.77
2017-07-11T04:32:35.633Z,4.40
2017-07-11T04:35:03.893Z,4.30
2017-07-11T04:37:32.527Z,7.43
2017-07-11T04:40:00.792Z,5.53
2017-07-11T04:42:29.048Z,3.13
2017-07-11T04:44:57.281Z,3.80
2017-07-11T04:47:25.519Z,4.50
2017-07-11T04:49:53.819Z,5.77
2017-07-11T04:52:22.041Z,6.40
2017-07-11T04:54:50.280Z,5.37
2017-07-11T04:57:18.869Z,6.87
2017-07-11T04:59:47.101Z,3.93
2017-07-11T05:02:15.336Z,8.33
2017-07-11T05:04:43.997Z,5.33
2017-07-11T05:07:12.304Z,5.00
2017-07-11T05:09:40.540Z,5.10
2017-07-11T05:12:08.826Z,9.30
2017-07-11T05:14:37.053Z,5.50
2017-07-11T05:17:05.296Z,7.40
2017-07-11T05:19:33.956Z,8.37
2017-07-11T05:22:02.195Z,8.20
2017-07-11T05:24:30.424Z,6.63
2017-07-11T05:26:58.684Z,9.13
2017-07-11T05:29:26.928Z,9.37
2017-07-11T05:31:55.177Z,9.47
2017-07-11T05:34:23.472Z,7.30
2017-07-11T05:36:51.714Z,8.10
2017-07-11T05:39:20.352Z,6.33
2017-07-11T05:41:48.609Z,8.30
2017-07-11T05:44:16.844Z,9.73
2017-07-11T05:46:45.061Z,5.63
2017-07-11T05:49:13.340Z,7.90
2017-07-11T05:51:41.577Z,4.00
2017-07-11T05:54:10.209Z,6.07
2017-07-11T05:56:38.510Z,8.33
2017-07-11T05:59:06.771Z,11.83
2017-07-11T06:01:35.029Z,15.30
2017-07-11T06:04:03.340Z,15.00
2017-07-11T06:06:31.584Z,14.97
2017-07-11T06:08:59.850Z,19.20
2017-07-11T06:11:28.277Z,11.60
2017-07-11T06:13:56.535Z,10.10
2017-07-11T06:16:25.010Z,14.03
2017-07-11T06:18:53.301Z,9.20
2017-07-11T06:21:22.865Z,7.50
2017-07-11T06:23:51.136Z,7.03
2017-07-11T06:26:19.629Z,11.80
2017-07-11T06:28:47.884Z,9.77
2017-07-11T06:31:16.141Z,18.60
2017-07-11T06:33:44.888Z,13.23
2017-07-11T06:36:13.145Z,13.10
2017-07-11T06:38:41.402Z,11.87
2017-07-11T06:41:09.781Z,13.27
2017-07-11T06:43:38.066Z,14.60
2017-07-11T06:46:06.362Z,9.63
2017-07-11T06:48:34.649Z,11.10
2017-07-11T06:51:02.935Z,11.60
2017-07-11T06:53:31.184Z,11.90
2017-07-11T06:55:59.568Z,8.30
2017-07-11T06:58:27.825Z,14.43
2017-07-11T07:00:56.166Z,9.67
2017-07-11T07:03:24.624Z,9.40
2017-07-11T07:05:53.119Z,10.73
2017-07-11T07:08:21.425Z,10.07
2017-07-11T07:10:49.948Z,12.40
2017-07-11T07:13:18.238Z,9.10
2017-07-11T07:15:46.497Z,7.07
2017-07-11T07:18:14.999Z,10.40
2017-07-11T07:20:43.251Z,13.23
2017-07-11T07:23:11.501Z,9.27
2017-07-11T07:25:39.789Z,9.40
2017-07-11T07:28:08.032Z,7.30
2017-07-11T07:30:36.307Z,15.10
2017-07-11T07:33:04.618Z,9.17
2017-07-11T07:35:32.922Z,7.40
2017-07-11T07:38:01.202Z,6.10
2017-07-11T07:40:29.461Z,8.40
2017-07-11T07:42:57.776Z,8.60
2017-07-11T07:45:26.626Z,7.03
2017-07-11T07:47:54.936Z,7.77
2017-07-11T07:50:23.198Z,16.20
2017-07-11T07:52:52.197Z,8.00
2017-07-11T07:55:20.478Z,7.50
2017-07-11T07:57:48.719Z,7.37
2017-07-11T08:00:16.981Z,7.83
2017-07-11T08:02:45.258Z,7.93
2017-07-11T08:05:13.506Z,7.70
2017-07-11T08:07:42.073Z,5.70
2017-07-11T08:10:10.363Z,9.60
2017-07-11T08:12:38.622Z,8.50
2017-07-11T08:15:06.872Z,7.60
2017-07-11T08:17:36.087Z,6.00
2017-07-11T08:20:04.352Z,4.17
2017-07-11T08:22:32.606Z,5.60
2017-07-11T08:25:00.929Z,8.03
2017-07-11T08:27:29.173Z,5.37
2017-07-11T08:29:57.521Z,4.33
2017-07-11T08:32:25.998Z,7.47
2017-07-11T08:34:55.169Z,6.10
2017-07-11T08:37:23.410Z,8.57
2017-07-11T08:39:51.774Z,9.17
2017-07-11T08:42:19.999Z,9.23
2017-07-11T08:44:48.647Z,5.27
2017-07-11T08:47:16.932Z,5.43
2017-07-11T08:49:45.187Z,5.23
2017-07-11T08:52:13.443Z,4.13
2017-07-11T08:54:41.725Z,4.70
2017-07-11T08:57:09.972Z,7.83
2017-07-11T08:59:38.830Z,4.00
2017-07-11T09:02:07.118Z,3.93
2017-07-11T09:04:35.357Z,5.67
2017-07-11T09:07:03.611Z,9.13
2017-07-11T09:09:32.819Z,4.97
2017-07-11T09:12:01.059Z,4.30
2017-07-11T09:14:30.066Z,4.37
2017-07-11T09:16:58.382Z,5.00
2017-07-11T09:19:26.667Z,5.60
2017-07-11T09:21:54.914Z,3.23
2017-07-11T09:24:23.248Z,2.90
2017-07-11T09:26:51.493Z,4.30
2017-07-11T09:29:19.770Z,6.93
2017-07-11T09:31:48.969Z,5.33
2017-07-11T09:34:17.270Z,6.23
2017-07-11T09:36:46.775Z,7.87
2017-07-11T09:39:15.051Z,5.03
2017-07-11T09:41:43.681Z,3.20
2017-07-11T09:44:12.678Z,4.20
2017-07-11T09:46:41.105Z,4.80
2017-07-11T09:49:09.695Z,5.27
2017-07-11T09:51:37.925Z,6.20
2017-07-11T09:54:06.274Z,5.87
2017-07-11T09:56:34.539Z,4.10
2017-07-11T09:59:02.787Z,4.30
2017-07-11T10:01:31.087Z,5.87
2017-07-11T10:03:59.642Z,9.60
2017-07-11T10:06:28.382Z,4.33
2017-07-11T10:08:56.701Z,5.57
2017-07-11T10:11:25.889Z,3.83
2017-07-11T10:13:54.144Z,5.70
2017-07-11T10:16:22.542Z,11.43
2017-07-11T10:18:50.826Z,6.03
2017-07-11T10:21:19.079Z,4.73
2017-07-11T10:23:47.330Z,3.70
2017-07-11T10:26:15.625Z,3.53
2017-07-11T10:28:43.867Z,3.80
2017-07-11T10:31:13.013Z,3.50
2017-07-11T10:33:41.631Z,3.23
2017-07-11T10:36:09.910Z,3.30
2017-07-11T10:38:38.644Z,3.50
2017-07-11T10:41:06.887Z,3.93
2017-07-11T10:43:35.155Z,4.50
2017-07-11T10:46:03.438Z,3.80
2017-07-11T10:48:32.065Z,3.43
2017-07-11T10:51:00.310Z,3.60
2017-07-11T10:53:28.615Z,4.20
2017-07-11T10:55:56.858Z,4.97
2017-07-11T10:58:25.105Z,4.40
2017-07-11T11:00:54.086Z,3.23
2017-07-11T11:03:22.319Z,3.53
2017-07-11T11:05:50.578Z,8.00
2017-07-11T11:08:18.851Z,3.93
2017-07-11T11:10:47.133Z,4.50
2017-07-11T11:13:15.366Z,4.27
2017-07-11T11:15:43.630Z,3.77
2017-07-11T11:18:12.087Z,4.90
2017-07-11T11:20:40.346Z,7.27
2017-07-11T11:23:08.637Z,6.10
2017-07-11T11:25:36.877Z,4.93
2017-07-11T11:28:05.115Z,4.77
2017-07-11T11:30:33.465Z,4.70
2017-07-11T11:33:01.717Z,4.43
2017-07-11T11:35:29.977Z,4.40
2017-07-11T11:37:58.257Z,4.93
2017-07-11T11:40:26.592Z,4.77
2017-07-11T11:42:54.813Z,4.77
2017-07-11T11:45:23.077Z,4.43
2017-07-11T11:47:51.716Z,5.30
2017-07-11T11:50:19.969Z,7.57
2017-07-11T11:52:48.261Z,3.90
2017-07-11T11:55:16.498Z,5.37
2017-07-11T11:57:45.143Z,6.70
2017-07-11T12:00:13.421Z,9.13
2017-07-11T12:02:41.877Z,6.30
2017-07-11T12:05:10.134Z,5.60
2017-07-11T12:07:38.426Z,11.50
2017-07-11T12:10:06.737Z,6.73
2017-07-11T12:12:35.015Z,7.57
2017-07-11T12:15:04.888Z,7.00
2017-07-11T12:17:33.136Z,12.43
2017-07-11T12:20:01.389Z,6.70
2017-07-11T12:22:29.670Z,6.97
2017-07-11T12:24:58.331Z,7.10
2017-07-11T12:27:26.561Z,6.50
2017-07-11T12:29:54.872Z,7.27
2017-07-11T12:32:23.124Z,9.60
2017-07-11T12:34:51.390Z,8.80
2017-07-11T12:37:19.686Z,10.57
2017-07-11T12:39:47.939Z,8.50
2017-07-11T12:42:16.187Z,14.33
2017-07-11T12:44:44.481Z,9.60
2017-07-11T12:47:12.813Z,8.67
2017-07-11T12:49:41.049Z,10.27
2017-07-11T12:52:09.363Z,7.13
2017-07-11T12:54:37.594Z,7.03
2017-07-11T12:57:06.058Z,8.30
2017-07-11T12:59:34.537Z,8.23
2017-07-11T13:02:03.004Z,9.53
2017-07-11T13:04:31.470Z,9.23
2017-07-11T13:06:59.738Z,8.20
2017-07-11T13:09:27.982Z,9.40
2017-07-11T13:11:56.239Z,10.50
2017-07-11T13:14:24.533Z,11.03
2017-07-11T13:16:52.821Z,12.40
2017-07-11T13:19:21.185Z,13.03
2017-07-11T13:21:49.474Z,11.60
2017-07-11T13:24:17.717Z,13.33
2017-07-11T13:26:46.198Z,8.07
2017-07-11T13:29:14.520Z,11.20
2017-07-11T13:31:42.799Z,11.60
2017-07-11T13:34:11.031Z,8.53
2017-07-11T13:36:39.311Z,16.57
2017-07-11T13:39:07.559Z,11.50
2017-07-11T13:41:35.797Z,8.53
2017-07-11T13:44:04.103Z,8.37
2017-07-11T13:46:32.351Z,10.20
2017-07-11T13:49:00.605Z,9.53
2017-07-11T13:51:28.920Z,9.53
2017-07-11T13:53:57.166Z,11.23
2017-07-11T13:56:25.451Z,10.27
2017-07-11T13:58:53.730Z,10.07
2017-07-11T14:01:21.997Z,10.00
2017-07-11T14:03:50.236Z,9.97
2017-07-11T14:06:18.519Z,11.60
2017-07-11T14:08:46.753Z,12.33
2017-07-11T14:11:15.236Z,9.77
2017-07-11T14:13:43.517Z,9.50
2017-07-11T14:16:11.761Z,10.67
2017-07-11T14:18:40.042Z,15.60
2017-07-11T14:21:08.352Z,15.30
2017-07-11T14:23:37.223Z,13.97
2017-07-11T14:26:05.491Z,14.23
2017-07-11T14:28:33.772Z,15.83
2017-07-11T14:31:02.042Z,13.70
2017-07-11T14:33:30.315Z,14.53
2017-07-11T14:35:58.704Z,13.93
2017-07-11T14:38:26.995Z,14.03
2017-07-11T14:40:55.705Z,13.17
2017-07-11T14:43:24.034Z,11.20
2017-07-11T14:45:52.298Z,15.80
2017-07-11T14:48:21.103Z,18.43
2017-07-11T14:50:49.394Z,13.43
2017-07-11T14:53:23.976Z,14.00
2017-07-11T14:55:52.659Z,15.07
2017-07-11T14:58:20.898Z,14.67
2017-07-11T15:00:49.645Z,10.67
2017-07-11T15:03:18.373Z,58.57
2017-07-11T15:05:46.658Z,79.00
2017-07-11T15:08:15.313Z,15.53
2017-07-11T15:10:43.642Z,13.07
2017-07-11T15:13:11.884Z,25.27
2017-07-11T15:15:40.549Z,95.37
2017-07-11T15:18:09.481Z,64.90
2017-07-11T15:20:37.761Z,18.60
2017-07-11T15:23:06.499Z,51.00
2017-07-11T15:25:34.795Z,35.53
2017-07-11T15:28:03.069Z,52.03
2017-07-11T15:30:31.325Z,36.07
2017-07-11T15:32:59.629Z,17.60
2017-07-11T15:35:28.284Z,39.03
2017-07-11T15:37:56.537Z,31.30
2017-07-11T15:40:24.830Z,26.80
2017-07-11T15:42:53.086Z,27.77
2017-07-11T15:45:21.360Z,28.90
2017-07-11T15:47:49.669Z,20.27
2017-07-11T15:50:17.919Z,20.73
2017-07-11T15:52:46.174Z,27.30
2017-07-11T15:55:14.459Z,41.73
2017-07-11T15:57:42.869Z,35.77
2017-07-11T16:00:11.446Z,41.17
2017-07-11T16:02:40.170Z,39.27
2017-07-11T16:05:08.427Z,20.97
2017-07-11T16:07:36.705Z,26.70
2017-07-11T16:10:05.065Z,19.73
2017-07-11T16:12:33.326Z,26.50
2017-07-11T16:15:01.577Z,18.30
2017-07-11T16:17:29.917Z,14.90
2017-07-11T16:19:58.602Z,15.77
2017-07-11T16:22:26.853Z,19.30
2017-07-11T16:24:55.171Z,13.20
2017-07-11T16:27:23.833Z,13.43
2017-07-11T16:29:52.090Z,13.00
2017-07-11T16:32:20.368Z,11.80
2017-07-11T16:34:48.618Z,10.27
2017-07-11T16:37:16.919Z,10.80
2017-07-11T16:39:46.087Z,14.60
2017-07-11T16:42:14.365Z,10.50
2017-07-11T16:44:42.669Z,9.43
2017-07-11T16:47:10.933Z,12.47
2017-07-11T16:49:39.329Z,11.07
2017-07-11T16:52:07.586Z,9.63
2017-07-11T16:54:35.861Z,9.60
2017-07-11T16:57:04.157Z,12.27
2017-07-11T16:59:32.402Z,11.10
2017-07-11T17:02:00.772Z,9.93
2017-07-11T17:04:29.308Z,9.60
2017-07-11T17:06:57.577Z,14.70
2017-07-11T17:09:26.077Z,10.77
2017-07-11T17:11:54.330Z,10.10
2017-07-11T17:14:22.591Z,11.03
2017-07-11T17:16:50.875Z,10.10
2017-07-11T17:19:19.119Z,9.43
2017-07-11T17:21:47.358Z,12.10
2017-07-11T17:24:16.116Z,11.30
2017-07-11T17:26:44.379Z,10.80
2017-07-11T17:29:12.634Z,15.03
2017-07-11T17:31:40.927Z,12.90
2017-07-11T17:34:09.190Z,11.93
2017-07-11T17:36:37.441Z,13.07
2017-07-11T17:39:05.751Z,9.73
2017-07-11T17:41:34.035Z,9.27
2017-07-11T17:44:02.280Z,13.23
2017-07-11T17:46:30.791Z,11.53
2017-07-11T17:48:59.274Z,13.30
2017-07-11T17:51:28.097Z,10.30
2017-07-11T17:53:57.804Z,10.60
2017-07-11T17:56:26.400Z,10.67
2017-07-11T17:58:55.143Z,13.03
2017-07-11T18:01:23.428Z,14.17
2017-07-11T18:03:53.174Z,11.13
2017-07-11T18:06:21.898Z,13.20
2017-07-11T18:08:50.290Z,15.40
2017-07-11T18:11:18.551Z,10.60
2017-07-11T18:13:46.809Z,11.43
2017-07-11T18:16:15.175Z,12.23
2017-07-11T18:18:43.425Z,11.53
2017-07-11T18:21:11.683Z,10.53
2017-07-11T18:23:40.062Z,11.50
2017-07-11T18:26:09.728Z,15.50
2017-07-11T18:28:39.290Z,11.40
2017-07-11T18:31:07.622Z,12.30
2017-07-11T18:33:35.872Z,10.60
2017-07-11T18:36:04.129Z,16.70
2017-07-11T18:38:32.420Z,10.63
2017-07-11T18:41:00.870Z,10.73
2017-07-11T18:43:29.469Z,11.67
2017-07-11T18:45:57.814Z,15.63
2017-07-11T18:48:26.365Z,12.07
2017-07-11T18:50:54.622Z,10.53
2017-07-11T18:53:23.390Z,9.60
2017-07-11T18:55:51.636Z,12.20
2017-07-11T18:58:19.894Z,14.13
2017-07-11T19:00:49.257Z,12.63
2017-07-11T19:03:17.516Z,14.20
2017-07-11T19:05:45.969Z,10.40
2017-07-11T19:08:14.308Z,16.50
2017-07-11T19:10:42.626Z,10.70
2017-07-11T19:13:10.882Z,16.27
2017-07-11T19:15:39.150Z,13.07
2017-07-11T19:18:07.419Z,11.63
2017-07-11T19:20:35.678Z,12.70
2017-07-11T19:23:03.989Z,25.83
2017-07-11T19:25:32.238Z,17.17
2017-07-11T19:28:00.512Z,15.67
2017-07-11T19:30:28.842Z,16.67
2017-07-11T19:32:57.163Z,14.30
2017-07-11T19:35:25.506Z,17.10
2017-07-11T19:37:54.085Z,16.30
2017-07-11T19:40:22.910Z,13.50
2017-07-11T19:42:51.413Z,13.40
2017-07-11T19:45:19.730Z,14.87
2017-07-11T19:47:48.010Z,15.87
2017-07-11T19:50:16.684Z,16.70
2017-07-11T19:52:44.984Z,18.77
2017-07-11T19:55:13.238Z,13.70
2017-07-11T19:57:41.513Z,13.27
2017-07-11T20:00:09.822Z,14.70
2017-07-11T20:02:38.489Z,17.47
2017-07-11T20:05:06.749Z,15.43
2017-07-11T20:07:35.137Z,14.60
2017-07-11T20:10:03.386Z,21.33
2017-07-11T20:12:31.769Z,18.33
2017-07-11T20:15:00.076Z,16.13
2017-07-11T20:17:28.349Z,14.77
2017-07-11T20:19:56.645Z,17.33
2017-07-11T20:22:29.799Z,18.40
2017-07-11T20:24:58.069Z,17.07
2017-07-11T20:27:26.331Z,20.23
2017-07-11T20:29:54.650Z,14.77
2017-07-11T20:32:23.205Z,16.93
2017-07-11T20:34:51.492Z,15.67
2017-07-11T20:37:20.097Z,15.70
2017-07-11T20:39:48.342Z,17.07
2017-07-11T20:42:16.597Z,19.40
2017-07-11T20:44:44.938Z,19.40
2017-07-11T20:47:13.591Z,14.30
2017-07-11T20:49:41.844Z,19.13
2017-07-11T20:52:10.148Z,16.90
2017-07-11T20:54:39.257Z,25.23
2017-07-11T20:57:07.509Z,16.80
2017-07-11T20:59:35.810Z,17.53
2017-07-11T21:02:04.470Z,20.50
2017-07-11T21:04:32.782Z,23.80
2017-07-11T21:07:01.452Z,24.77
2017-07-11T21:09:29.932Z,19.23
2017-07-11T21:11:58.192Z,24.37
2017-07-11T21:14:26.478Z,23.80
2017-07-11T21:16:55.255Z,19.43
2017-07-11T21:19:23.520Z,20.13
2017-07-11T21:21:51.839Z,16.73
2017-07-11T21:24:20.504Z,28.03
2017-07-11T21:26:49.008Z,18.50
2017-07-11T21:29:17.719Z,17.27
2017-07-11T21:31:45.961Z,19.63
2017-07-11T21:34:14.945Z,15.63
2017-07-11T21:36:43.277Z,14.57
2017-07-11T21:39:11.570Z,22.53
2017-07-11T21:41:45.326Z,17.43
2017-07-11T21:44:14.192Z,15.67
2017-07-11T21:46:42.443Z,18.40
2017-07-11T21:49:10.725Z,15.00
2017-07-11T21:51:38.980Z,17.93
2017-07-11T21:54:07.730Z,13.40
2017-07-11T21:56:36.296Z,14.97
2017-07-11T21:59:04.535Z,16.87
2017-07-11T22:01:33.654Z,14.70
2017-07-11T22:04:05.042Z,20.83
2017-07-11T22:06:35.487Z,13.80
2017-07-11T22:09:03.776Z,16.23
2017-07-11T22:11:32.039Z,14.73
2017-07-11T22:14:00.302Z,15.27
2017-07-11T22:16:28.631Z,15.27
2017-07-11T22:18:56.963Z,16.17
2017-07-11T22:21:25.387Z,15.30
2017-07-11T22:23:53.981Z,14.83
2017-07-11T22:26:22.247Z,16.33
2017-07-11T22:28:50.738Z,14.47
2017-07-11T22:31:19.139Z,13.83
2017-07-11T22:33:47.384Z,14.17
2017-07-11T22:36:15.656Z,14.10
2017-07-11T22:38:44.040Z,10.43
2017-07-11T22:41:12.320Z,12.60
2017-07-11T22:43:40.565Z,10.57
2017-07-11T22:46:08.830Z,9.63
2017-07-11T22:48:37.088Z,14.37
2017-07-11T22:51:05.766Z,17.50
2017-07-11T22:53:34.065Z,12.13
2017-07-11T22:56:02.309Z,11.80
2017-07-11T22:58:30.952Z,14.23
2017-07-11T23:00:59.265Z,10.17
2017-07-11T23:03:27.498Z,13.47
2017-07-11T23:05:55.763Z,11.00
2017-07-11T23:08:24.040Z,13.53
2017-07-11T23:10:52.855Z,12.40
2017-07-11T23:13:21.118Z,10.90
2017-07-11T23:15:53.379Z,11.97
2017-07-11T23:18:21.643Z,12.23
2017-07-11T23:20:49.909Z,10.10
2017-07-11T23:23:18.197Z,11.87
2017-07-11T23:25:46.451Z,14.67
2017-07-11T23:28:14.708Z,12.17
2017-07-11T23:30:43.421Z,16.77
2017-07-11T23:33:11.738Z,18.13
2017-07-11T23:35:40.000Z,11.23
2017-07-11T23:38:08.291Z,17.43
2017-07-11T23:40:36.784Z,18.07
2017-07-11T23:43:05.034Z,16.90
2017-07-11T23:45:33.340Z,17.17
2017-07-11T23:48:01.585Z,18.60
2017-07-11T23:50:29.836Z,17.77
2017-07-11T23:52:58.126Z,16.57
2017-07-11T23:55:26.409Z,20.43
2017-07-11T23:57:54.649Z,19.00
